createdAt,value
2022-12-31T00:02:33.926Z,12.51
2022-12-31T00:13:20.731Z,12.54
2022-12-31T00:18:27.579Z,12.55
2022-12-31T00:23:44.285Z,12.57
2022-12-31T00:28:57.890Z,12.59
2022-12-31T00:34:14.102Z,12.60
2022-12-31T00:39:31.008Z,12.58
2022-12-31T00:44:41.179Z,12.61
2022-12-31T00:49:52.563Z,12.60
2022-12-31T00:55:03.411Z,12.58
2022-12-31T01:00:29.627Z,12.56
2022-12-31T01:05:39.079Z,12.50
2022-12-31T01:11:16.230Z,12.42
2022-12-31T01:16:27.303Z,12.41
2022-12-31T01:21:36.082Z,12.46
2022-12-31T01:26:42.005Z,12.49
2022-12-31T01:31:50.217Z,12.59
2022-12-31T01:37:04.689Z,12.64
2022-12-31T01:42:16.747Z,12.69
2022-12-31T01:47:37.315Z,12.77
2022-12-31T01:52:47.468Z,12.76
2022-12-31T01:58:13.618Z,12.81
2022-12-31T02:03:39.447Z,12.88
2022-12-31T02:09:09.539Z,12.84
2022-12-31T02:14:24.550Z,12.80
2022-12-31T02:20:10.371Z,12.83
2022-12-31T02:25:39.435Z,12.83
2022-12-31T02:30:58.007Z,12.84
2022-12-31T02:36:14.217Z,12.92
2022-12-31T02:41:37.047Z,13.00
2022-12-31T02:46:55.254Z,13.10
2022-12-31T02:52:21.143Z,13.19
2022-12-31T02:57:34.466Z,13.27
2022-12-31T03:02:43.655Z,13.30
2022-12-31T03:07:49.087Z,13.31
2022-12-31T03:12:53.886Z,13.34
2022-12-31T03:18:01.874Z,13.39
2022-12-31T03:23:11.316Z,13.45
2022-12-31T03:28:17.136Z,13.53
2022-12-31T03:33:27.531Z,13.59
2022-12-31T03:38:32.672Z,13.60
2022-12-31T03:43:36.760Z,13.66
2022-12-31T03:48:44.581Z,13.71
2022-12-31T03:53:51.437Z,13.77
2022-12-31T03:58:59.781Z,13.84
2022-12-31T04:04:08.451Z,13.89
2022-12-31T04:09:14.165Z,13.95
2022-12-31T04:14:20.651Z,14.00
2022-12-31T04:19:27.672Z,14.03
2022-12-31T04:24:36.209Z,14.08
2022-12-31T04:29:48.608Z,14.15
2022-12-31T04:35:00.342Z,14.21
2022-12-31T04:40:06.501Z,14.28
2022-12-31T04:45:15.053Z,14.35
2022-12-31T04:50:22.904Z,14.42
2022-12-31T04:55:30.063Z,14.46
2022-12-31T05:00:34.592Z,14.52
2022-12-31T05:05:48.265Z,14.60
2022-12-31T05:10:53.921Z,14.64
2022-12-31T05:15:59.836Z,14.69
2022-12-31T05:21:06.481Z,14.73
2022-12-31T05:26:11.051Z,14.77
2022-12-31T05:31:16.700Z,14.82
2022-12-31T05:36:23.711Z,14.90
2022-12-31T05:41:28.124Z,14.95
2022-12-31T05:46:32.754Z,15.01
2022-12-31T05:51:38.967Z,15.06
2022-12-31T05:56:43.908Z,15.10
2022-12-31T06:02:02.470Z,15.17
2022-12-31T06:07:17.976Z,15.19
2022-12-31T06:18:27.461Z,15.24
2022-12-31T06:23:43.418Z,15.27
2022-12-31T06:28:53.648Z,15.31
2022-12-31T06:34:00.592Z,15.37
2022-12-31T06:39:07.576Z,15.41
2022-12-31T06:44:12.545Z,15.51
2022-12-31T06:49:17.078Z,15.57
2022-12-31T06:54:40.816Z,15.58
2022-12-31T06:59:47.579Z,15.62
2022-12-31T07:05:16.012Z,15.75
2022-12-31T07:10:36.389Z,15.82
2022-12-31T07:21:42.510Z,15.89
2022-12-31T07:27:27.372Z,16.01
2022-12-31T07:32:57.015Z,16.10
2022-12-31T07:38:28.525Z,16.14
2022-12-31T07:43:51.874Z,16.15
2022-12-31T07:49:07.271Z,16.19
2022-12-31T07:54:14.412Z,16.21
2022-12-31T08:05:06.606Z,16.26
2022-12-31T08:10:21.021Z,16.29
2022-12-31T08:16:03.411Z,16.35
2022-12-31T08:21:37.832Z,16.37
2022-12-31T08:26:54.444Z,16.41
2022-12-31T08:32:25.665Z,16.49
2022-12-31T08:37:38.443Z,16.52
2022-12-31T08:42:54.752Z,16.59
2022-12-31T08:48:07.857Z,16.61
2022-12-31T08:53:17.281Z,16.63
2022-12-31T08:58:36.710Z,16.65
2022-12-31T09:03:54.336Z,16.72
2022-12-31T09:09:09.835Z,16.76
2022-12-31T09:14:48.184Z,16.85
2022-12-31T09:19:56.203Z,16.97
2022-12-31T09:25:07.467Z,17.09
2022-12-31T09:30:20.264Z,17.15
2022-12-31T09:35:41.169Z,17.26
2022-12-31T09:41:11.774Z,17.39
2022-12-31T09:46:39.116Z,17.57
2022-12-31T09:57:39.469Z,17.81
2022-12-31T10:03:06.074Z,17.90
2022-12-31T10:08:18.879Z,18.00
2022-12-31T10:13:44.831Z,18.12
2022-12-31T10:19:05.086Z,18.21
2022-12-31T10:24:35.407Z,18.33
2022-12-31T10:29:47.172Z,18.42
2022-12-31T10:34:57.314Z,18.58
2022-12-31T10:40:23.282Z,18.70
2022-12-31T10:45:51.172Z,18.82
2022-12-31T10:51:30.367Z,19.02
2022-12-31T10:57:07.046Z,19.10
2022-12-31T11:02:37.723Z,19.11
2022-12-31T11:07:57.533Z,19.07
2022-12-31T11:13:30.072Z,18.99
2022-12-31T11:18:44.881Z,18.87
2022-12-31T11:23:59.095Z,18.81
2022-12-31T11:29:15.950Z,18.83
2022-12-31T11:34:36.288Z,18.82
2022-12-31T11:39:56.442Z,18.84
2022-12-31T11:45:05.508Z,18.82
2022-12-31T11:50:29.279Z,18.84
2022-12-31T11:55:42.644Z,18.81
2022-12-31T12:00:55.821Z,18.71
2022-12-31T12:06:00.926Z,18.64
2022-12-31T12:11:07.965Z,18.65
2022-12-31T12:16:11.315Z,18.67
2022-12-31T12:21:18.557Z,18.71
2022-12-31T12:26:30.984Z,18.76
2022-12-31T12:31:34.884Z,18.79
2022-12-31T12:36:47.256Z,18.79
2022-12-31T12:42:03.721Z,18.86
2022-12-31T12:47:08.679Z,18.90
2022-12-31T12:52:38.954Z,18.94
2022-12-31T12:57:50.691Z,18.92
2022-12-31T13:03:26.626Z,18.88
2022-12-31T13:08:44.905Z,18.81
2022-12-31T13:13:58.030Z,18.76
2022-12-31T13:19:07.628Z,18.72
2022-12-31T13:24:23.592Z,18.70
2022-12-31T13:29:32.505Z,18.66
2022-12-31T13:34:39.894Z,18.65
2022-12-31T13:39:47.743Z,18.64
2022-12-31T13:44:54.590Z,18.61
2022-12-31T13:50:01.925Z,18.63
2022-12-31T13:55:14.678Z,18.69
2022-12-31T14:00:24.232Z,18.65
2022-12-31T14:05:33.921Z,18.58
2022-12-31T14:10:59.262Z,18.56
2022-12-31T14:16:13.494Z,18.55
2022-12-31T14:21:24.697Z,18.56
2022-12-31T14:26:33.502Z,18.52
2022-12-31T14:32:03.098Z,18.44
2022-12-31T14:37:15.266Z,18.35
2022-12-31T14:42:30.314Z,18.29
2022-12-31T14:47:48.105Z,18.25
2022-12-31T14:52:55.375Z,18.21
2022-12-31T15:03:48.644Z,18.09
2022-12-31T15:09:07.643Z,18.06
2022-12-31T15:15:06.715Z,18.01
2022-12-31T15:26:38.839Z,17.83
2022-12-31T15:32:10.422Z,17.74
2022-12-31T15:37:32.874Z,17.67
2022-12-31T15:42:59.254Z,17.59
2022-12-31T15:48:12.325Z,17.52
2022-12-31T15:53:30.764Z,17.51
2022-12-31T15:58:40.207Z,17.44
2022-12-31T16:03:49.261Z,17.37
2022-12-31T16:09:01.208Z,17.33
2022-12-31T16:14:07.347Z,17.29
2022-12-31T16:19:38.186Z,17.33
2022-12-31T16:25:28.544Z,17.34
2022-12-31T16:30:29.511Z,17.38
2022-12-31T16:35:44.997Z,17.36
2022-12-31T16:41:15.457Z,17.34
2022-12-31T16:46:24.144Z,17.31
2022-12-31T16:51:31.855Z,17.33
2022-12-31T16:56:41.042Z,17.35
2022-12-31T17:01:48.916Z,17.34
2022-12-31T17:06:57.540Z,17.36
2022-12-31T17:12:18.449Z,17.40
2022-12-31T17:17:34.248Z,17.37
2022-12-31T17:23:00.641Z,17.36
2022-12-31T17:28:35.415Z,17.34
2022-12-31T17:33:44.795Z,17.28
2022-12-31T17:38:56.169Z,17.25
2022-12-31T17:44:08.842Z,17.23
2022-12-31T17:49:16.545Z,17.20
2022-12-31T17:54:21.403Z,17.23
2022-12-31T17:59:38.616Z,17.24
2022-12-31T18:04:42.945Z,17.19
2022-12-31T18:09:54.043Z,17.15
2022-12-31T18:15:21.091Z,17.16
2022-12-31T18:20:28.213Z,17.11
2022-12-31T18:31:02.326Z,17.10
2022-12-31T18:36:13.341Z,17.07
2022-12-31T18:41:27.248Z,17.04
2022-12-31T18:46:45.144Z,17.04
2022-12-31T18:51:58.369Z,17.01
2022-12-31T18:57:08.161Z,17.00
2022-12-31T19:07:56.682Z,17.06
2022-12-31T19:13:08.344Z,17.11
2022-12-31T19:18:24.486Z,17.16
2022-12-31T19:23:47.443Z,17.17
2022-12-31T19:28:57.458Z,17.18
2022-12-31T19:34:10.968Z,17.21
2022-12-31T19:39:23.852Z,17.19
2022-12-31T19:44:37.153Z,17.20
2022-12-31T19:49:56.391Z,17.21
2022-12-31T19:55:07.850Z,17.21
2022-12-31T20:00:18.009Z,17.23
2022-12-31T20:05:49.096Z,17.25
2022-12-31T20:10:59.086Z,17.25
2022-12-31T20:16:14.114Z,17.25
2022-12-31T20:21:25.766Z,17.30
2022-12-31T20:26:33.122Z,17.30
2022-12-31T20:32:00.745Z,17.30
2022-12-31T20:37:17.876Z,17.31
2022-12-31T20:42:25.677Z,17.27
2022-12-31T20:47:35.660Z,17.25
2022-12-31T20:52:45.322Z,17.25
2022-12-31T20:57:50.850Z,17.21
2022-12-31T21:03:10.501Z,17.18
2022-12-31T21:08:35.276Z,17.12
2022-12-31T21:13:47.394Z,17.07
2022-12-31T21:18:53.062Z,17.02
2022-12-31T21:24:04.267Z,16.99
2022-12-31T21:29:21.907Z,16.96
2022-12-31T21:35:39.634Z,16.98
2022-12-31T21:40:32.181Z,17.00
2022-12-31T21:46:03.104Z,17.01
2022-12-31T21:51:13.397Z,17.03
2022-12-31T21:56:28.566Z,17.05
2022-12-31T22:01:53.053Z,17.05
2022-12-31T22:07:02.607Z,17.03
2022-12-31T22:12:24.161Z,17.04
2022-12-31T22:17:33.657Z,17.00
2022-12-31T22:22:39.826Z,16.98
2022-12-31T22:28:19.083Z,16.99
2022-12-31T22:33:24.730Z,16.92
2022-12-31T22:38:39.236Z,16.88
2022-12-31T22:44:04.238Z,16.84
2022-12-31T22:49:40.819Z,16.80
2022-12-31T22:54:57.686Z,16.76
2022-12-31T23:00:06.973Z,16.73
2022-12-31T23:05:14.851Z,16.73
2022-12-31T23:16:53.895Z,16.74
2022-12-31T23:22:29.771Z,16.72
2022-12-31T23:27:36.203Z,16.71
2022-12-31T23:32:45.406Z,16.71
2022-12-31T23:37:52.809Z,16.66
2022-12-31T23:42:58.069Z,16.63
2022-12-31T23:48:10.712Z,16.59
2022-12-31T23:53:16.361Z,16.52
2022-12-31T23:58:21.359Z,16.50
